sensor_id;sensor_type;location;lat;lon;timestamp;temperature;humidity
3614;DHT22;1821;50.936;6.854;2023-02-19T12:24:02;12.40;99.90
3614;DHT22;1821;50.936;6.854;2023-02-19T12:32:43;12.90;99.90
3614;DHT22;1821;50.936;6.854;2023-02-19T12:33:44;12.70;99.90
3614;DHT22;1821;50.936;6.854;2023-02-19T12:34:42;12.90;99.90
3614;DHT22;1821;50.936;6.854;2023-02-19T12:35:36;12.90;99.90
3614;DHT22;1821;50.936;6.854;2023-02-19T12:36:42;12.70;99.90
3614;DHT22;1821;50.936;6.854;2023-02-19T12:39:39;13.20;99.90
3614;DHT22;1821;50.936;6.854;2023-02-19T12:43:15;13.20;99.90
3614;DHT22;1821;50.936;6.854;2023-02-19T12:44:03;13.10;99.90
3614;DHT22;1821;50.936;6.854;2023-02-19T12:44:56;13.10;99.90
3614;DHT22;1821;50.936;6.854;2023-02-19T12:46:39;12.70;99.90
3614;DHT22;1821;50.936;6.854;2023-02-19T12:50:01;12.60;99.90
3614;DHT22;1821;50.936;6.854;2023-02-19T12:50:47;12.70;99.90
3614;DHT22;1821;50.936;6.854;2023-02-19T12:51:32;12.70;99.90
3614;DHT22;1821;50.936;6.854;2023-02-19T12:52:22;12.70;99.90
3614;DHT22;1821;50.936;6.854;2023-02-19T12:53:36;12.80;99.90
3614;DHT22;1821;50.936;6.854;2023-02-19T12:54:29;12.70;99.90
3614;DHT22;1821;50.936;6.854;2023-02-19T12:55:29;12.40;99.90
3614;DHT22;1821;50.936;6.854;2023-02-19T12:56:27;12.70;99.90
3614;DHT22;1821;50.936;6.854;2023-02-19T12:57:14;12.50;99.90
3614;DHT22;1821;50.936;6.854;2023-02-19T12:58:00;12.50;99.90
3614;DHT22;1821;50.936;6.854;2023-02-19T12:58:48;12.30;99.90
3614;DHT22;1821;50.936;6.854;2023-02-19T12:59:53;12.20;99.90
3614;DHT22;1821;50.936;6.854;2023-02-19T13:00:40;12.20;99.90
3614;DHT22;1821;50.936;6.854;2023-02-19T13:01:29;12.00;99.90
3614;DHT22;1821;50.936;6.854;2023-02-19T13:03:20;12.10;99.90
3614;DHT22;1821;50.936;6.854;2023-02-19T13:04:21;12.00;99.90
3614;DHT22;1821;50.936;6.854;2023-02-19T13:05:05;12.20;99.90
3614;DHT22;1821;50.936;6.854;2023-02-19T13:05:53;12.20;99.90
3614;DHT22;1821;50.936;6.854;2023-02-19T13:06:50;12.00;99.90
3614;DHT22;1821;50.936;6.854;2023-02-19T13:07:42;11.80;99.90
3614;DHT22;1821;50.936;6.854;2023-02-19T13:08:40;12.00;99.90
3614;DHT22;1821;50.936;6.854;2023-02-19T13:09:52;12.00;99.90
3614;DHT22;1821;50.936;6.854;2023-02-19T13:10:50;11.90;99.90
3614;DHT22;1821;50.936;6.854;2023-02-19T13:11:39;11.70;99.90
3614;DHT22;1821;50.936;6.854;2023-02-19T13:12:29;12.10;99.90
3614;DHT22;1821;50.936;6.854;2023-02-19T13:13:27;11.60;99.90
3614;DHT22;1821;50.936;6.854;2023-02-19T13:16:07;11.50;99.90
3614;DHT22;1821;50.936;6.854;2023-02-19T13:16:56;11.60;99.90
3614;DHT22;1821;50.936;6.854;2023-02-19T13:17:56;11.70;99.90
3614;DHT22;1821;50.936;6.854;2023-02-19T13:18:45;11.70;99.90
3614;DHT22;1821;50.936;6.854;2023-02-19T13:19:29;11.70;99.90
3614;DHT22;1821;50.936;6.854;2023-02-19T13:20:22;11.60;99.90
3614;DHT22;1821;50.936;6.854;2023-02-19T13:21:05;11.80;99.90
3614;DHT22;1821;50.936;6.854;2023-02-19T13:21:58;11.70;99.90
3614;DHT22;1821;50.936;6.854;2023-02-19T13:23:12;11.70;99.90
3614;DHT22;1821;50.936;6.854;2023-02-19T13:24:27;11.70;99.90
3614;DHT22;1821;50.936;6.854;2023-02-19T13:25:14;11.80;99.90
3614;DHT22;1821;50.936;6.854;2023-02-19T13:28:11;11.40;99.90
3614;DHT22;1821;50.936;6.854;2023-02-19T13:29:24;11.60;99.90
3614;DHT22;1821;50.936;6.854;2023-02-19T13:30:20;11.30;99.90
3614;DHT22;1821;50.936;6.854;2023-02-19T13:33:36;11.30;99.90
3614;DHT22;1821;50.936;6.854;2023-02-19T13:34:53;11.50;99.90
3614;DHT22;1821;50.936;6.854;2023-02-19T13:36:01;11.40;99.90
3614;DHT22;1821;50.936;6.854;2023-02-19T13:36:48;11.20;99.90
3614;DHT22;1821;50.936;6.854;2023-02-19T13:37:32;11.40;99.90
3614;DHT22;1821;50.936;6.854;2023-02-19T13:38:15;11.30;99.90
3614;DHT22;1821;50.936;6.854;2023-02-19T13:38:58;11.30;99.90
3614;DHT22;1821;50.936;6.854;2023-02-19T13:39:51;11.20;99.90
3614;DHT22;1821;50.936;6.854;2023-02-19T13:40:36;11.40;99.90
3614;DHT22;1821;50.936;6.854;2023-02-19T13:41:40;11.30;99.90
3614;DHT22;1821;50.936;6.854;2023-02-19T13:42:30;11.30;99.90
3614;DHT22;1821;50.936;6.854;2023-02-19T13:43:33;11.40;99.90
3614;DHT22;1821;50.936;6.854;2023-02-19T13:44:19;11.40;99.90
3614;DHT22;1821;50.936;6.854;2023-02-19T13:45:04;11.30;99.90
3614;DHT22;1821;50.936;6.854;2023-02-19T13:45:59;11.40;99.90
3614;DHT22;1821;50.936;6.854;2023-02-19T13:46:44;11.50;99.90
3614;DHT22;1821;50.936;6.854;2023-02-19T13:47:48;11.60;99.90
3614;DHT22;1821;50.936;6.854;2023-02-19T13:48:39;11.70;99.90
3614;DHT22;1821;50.936;6.854;2023-02-19T13:50:05;11.60;99.90
3614;DHT22;1821;50.936;6.854;2023-02-19T13:50:47;11.40;99.90
3614;DHT22;1821;50.936;6.854;2023-02-19T13:51:37;11.30;99.90
3614;DHT22;1821;50.936;6.854;2023-02-19T13:54:35;11.40;99.90
3614;DHT22;1821;50.936;6.854;2023-02-19T13:59:34;11.50;99.90
3614;DHT22;1821;50.936;6.854;2023-02-19T14:00:48;11.70;99.90
3614;DHT22;1821;50.936;6.854;2023-02-19T14:02:33;11.70;99.90
3614;DHT22;1821;50.936;6.854;2023-02-19T14:03:38;11.60;99.90
3614;DHT22;1821;50.936;6.854;2023-02-19T14:05:12;11.80;99.90
3614;DHT22;1821;50.936;6.854;2023-02-19T14:06:05;11.70;99.90
3614;DHT22;1821;50.936;6.854;2023-02-19T14:07:58;11.80;99.90
3614;DHT22;1821;50.936;6.854;2023-02-19T14:08:57;11.80;99.90
3614;DHT22;1821;50.936;6.854;2023-02-19T14:10:54;11.70;99.90
3614;DHT22;1821;50.936;6.854;2023-02-19T14:12:33;11.60;99.90
3614;DHT22;1821;50.936;6.854;2023-02-19T14:14:44;11.50;99.90
3614;DHT22;1821;50.936;6.854;2023-02-19T14:15:40;11.60;99.90
3614;DHT22;1821;50.936;6.854;2023-02-19T14:16:28;11.60;99.90
3614;DHT22;1821;50.936;6.854;2023-02-19T14:17:43;11.60;99.90
3614;DHT22;1821;50.936;6.854;2023-02-19T14:18:44;11.60;99.90
3614;DHT22;1821;50.936;6.854;2023-02-19T14:20:42;11.60;99.90
3614;DHT22;1821;50.936;6.854;2023-02-19T14:21:36;11.60;99.90
3614;DHT22;1821;50.936;6.854;2023-02-19T14:23:26;11.50;99.90
3614;DHT22;1821;50.936;6.854;2023-02-19T14:24:13;11.50;99.90
3614;DHT22;1821;50.936;6.854;2023-02-19T14:24:56;11.60;99.90
3614;DHT22;1821;50.936;6.854;2023-02-19T14:25:47;11.60;99.90
3614;DHT22;1821;50.936;6.854;2023-02-19T14:26:31;11.70;99.90
3614;DHT22;1821;50.936;6.854;2023-02-19T14:27:15;11.60;99.90
3614;DHT22;1821;50.936;6.854;2023-02-19T14:28:00;11.20;99.90
3614;DHT22;1821;50.936;6.854;2023-02-19T14:29:27;11.50;99.90
3614;DHT22;1821;50.936;6.854;2023-02-19T14:30:11;11.60;99.90
3614;DHT22;1821;50.936;6.854;2023-02-19T14:31:00;11.50;99.90
3614;DHT22;1821;50.936;6.854;2023-02-19T14:31:44;11.40;99.90
3614;DHT22;1821;50.936;6.854;2023-02-19T14:32:26;13.30;99.90
3614;DHT22;1821;50.936;6.854;2023-02-19T14:33:09;11.40;99.90
3614;DHT22;1821;50.936;6.854;2023-02-19T14:34:03;11.40;99.90
3614;DHT22;1821;50.936;6.854;2023-02-19T14:34:45;11.50;99.90
3614;DHT22;1821;50.936;6.854;2023-02-19T14:35:36;11.20;99.90
3614;DHT22;1821;50.936;6.854;2023-02-19T14:36:27;11.50;99.90
3614;DHT22;1821;50.936;6.854;2023-02-19T14:37:16;11.50;99.90
3614;DHT22;1821;50.936;6.854;2023-02-19T14:38:00;11.40;99.90
3614;DHT22;1821;50.936;6.854;2023-02-19T14:38:55;11.50;99.90
3614;DHT22;1821;50.936;6.854;2023-02-19T14:39:38;11.20;99.90
3614;DHT22;1821;50.936;6.854;2023-02-19T14:40:37;11.30;99.90
3614;DHT22;1821;50.936;6.854;2023-02-19T14:41:20;11.00;99.90
3614;DHT22;1821;50.936;6.854;2023-02-19T14:42:15;11.40;99.90
3614;DHT22;1821;50.936;6.854;2023-02-19T14:42:59;11.20;99.90
3614;DHT22;1821;50.936;6.854;2023-02-19T14:43:45;11.20;99.90
3614;DHT22;1821;50.936;6.854;2023-02-19T14:44:31;11.30;99.90
3614;DHT22;1821;50.936;6.854;2023-02-19T14:45:17;11.20;99.90
3614;DHT22;1821;50.936;6.854;2023-02-19T14:46:03;11.30;99.90
3614;DHT22;1821;50.936;6.854;2023-02-19T14:47:32;11.40;99.90
3614;DHT22;1821;50.936;6.854;2023-02-19T14:48:43;11.10;99.90
3614;DHT22;1821;50.936;6.854;2023-02-19T14:50:30;10.90;99.90
3614;DHT22;1821;50.936;6.854;2023-02-19T14:52:25;11.30;99.90
3614;DHT22;1821;50.936;6.854;2023-02-19T14:53:09;11.00;99.90
3614;DHT22;1821;50.936;6.854;2023-02-19T14:53:54;11.10;99.90
3614;DHT22;1821;50.936;6.854;2023-02-19T14:54:57;11.20;99.90
3614;DHT22;1821;50.936;6.854;2023-02-19T14:55:41;11.30;99.90
3614;DHT22;1821;50.936;6.854;2023-02-19T14:56:26;11.40;99.90
3614;DHT22;1821;50.936;6.854;2023-02-19T14:57:19;11.30;99.90
3614;DHT22;1821;50.936;6.854;2023-02-19T14:58:05;11.40;99.90
3614;DHT22;1821;50.936;6.854;2023-02-19T14:59:06;11.00;99.90
3614;DHT22;1821;50.936;6.854;2023-02-19T15:00:36;11.10;99.90
3614;DHT22;1821;50.936;6.854;2023-02-19T15:01:27;9.80;99.90
3614;DHT22;1821;50.936;6.854;2023-02-19T15:02:14;10.90;99.90
3614;DHT22;1821;50.936;6.854;2023-02-19T15:03:02;11.00;99.90
3614;DHT22;1821;50.936;6.854;2023-02-19T15:03:48;11.00;99.90
3614;DHT22;1821;50.936;6.854;2023-02-19T15:04:35;11.00;99.90
3614;DHT22;1821;50.936;6.854;2023-02-19T15:05:22;10.90;99.90
3614;DHT22;1821;50.936;6.854;2023-02-19T15:06:12;10.90;99.90
3614;DHT22;1821;50.936;6.854;2023-02-19T15:06:59;11.10;99.90
3614;DHT22;1821;50.936;6.854;2023-02-19T15:07:42;11.20;99.90
3614;DHT22;1821;50.936;6.854;2023-02-19T15:08:30;11.10;99.90
3614;DHT22;1821;50.936;6.854;2023-02-19T15:09:13;11.00;99.90
3614;DHT22;1821;50.936;6.854;2023-02-19T15:09:59;11.00;99.90
3614;DHT22;1821;50.936;6.854;2023-02-19T15:10:45;11.20;99.90
3614;DHT22;1821;50.936;6.854;2023-02-19T15:11:29;11.00;99.90
3614;DHT22;1821;50.936;6.854;2023-02-19T15:13:02;10.90;99.90
3614;DHT22;1821;50.936;6.854;2023-02-19T15:13:51;11.00;99.90
3614;DHT22;1821;50.936;6.854;2023-02-19T15:14:34;11.00;99.90
3614;DHT22;1821;50.936;6.854;2023-02-19T15:15:28;11.20;99.90
3614;DHT22;1821;50.936;6.854;2023-02-19T15:16:17;10.90;99.90
3614;DHT22;1821;50.936;6.854;2023-02-19T15:17:02;11.10;99.90
3614;DHT22;1821;50.936;6.854;2023-02-19T15:17:46;11.20;99.90
3614;DHT22;1821;50.936;6.854;2023-02-19T15:18:28;11.10;99.90
3614;DHT22;1821;50.936;6.854;2023-02-19T15:19:13;11.10;99.90
3614;DHT22;1821;50.936;6.854;2023-02-19T15:20:00;11.10;99.90
3614;DHT22;1821;50.936;6.854;2023-02-19T15:20:44;11.00;99.90
3614;DHT22;1821;50.936;6.854;2023-02-19T15:21:30;11.00;99.90
3614;DHT22;1821;50.936;6.854;2023-02-19T15:22:19;10.80;99.90
3614;DHT22;1821;50.936;6.854;2023-02-19T15:23:05;10.90;99.90
3614;DHT22;1821;50.936;6.854;2023-02-19T15:23:48;11.00;99.90
3614;DHT22;1821;50.936;6.854;2023-02-19T15:24:30;10.90;99.90
3614;DHT22;1821;50.936;6.854;2023-02-19T15:25:16;11.00;99.90
3614;DHT22;1821;50.936;6.854;2023-02-19T15:25:59;10.90;99.90
3614;DHT22;1821;50.936;6.854;2023-02-19T15:26:45;10.90;99.90
3614;DHT22;1821;50.936;6.854;2023-02-19T15:27:27;11.00;99.90
3614;DHT22;1821;50.936;6.854;2023-02-19T15:29:13;11.00;99.90
3614;DHT22;1821;50.936;6.854;2023-02-19T15:29:56;11.20;99.90
3614;DHT22;1821;50.936;6.854;2023-02-19T15:30:37;11.00;99.90
3614;DHT22;1821;50.936;6.854;2023-02-19T15:31:19;11.00;99.90
3614;DHT22;1821;50.936;6.854;2023-02-19T15:32:12;11.10;99.90
3614;DHT22;1821;50.936;6.854;2023-02-19T15:32:58;11.00;99.90
3614;DHT22;1821;50.936;6.854;2023-02-19T15:33:48;11.00;99.90
3614;DHT22;1821;50.936;6.854;2023-02-19T15:34:31;11.00;99.90
3614;DHT22;1821;50.936;6.854;2023-02-19T15:35:21;11.00;99.90
3614;DHT22;1821;50.936;6.854;2023-02-19T15:36:06;11.00;99.90
3614;DHT22;1821;50.936;6.854;2023-02-19T15:36:55;10.90;99.90
3614;DHT22;1821;50.936;6.854;2023-02-19T15:37:37;10.90;99.90
3614;DHT22;1821;50.936;6.854;2023-02-19T15:38:21;11.10;99.90
3614;DHT22;1821;50.936;6.854;2023-02-19T15:39:03;10.90;99.90
3614;DHT22;1821;50.936;6.854;2023-02-19T15:39:47;11.30;99.90
3614;DHT22;1821;50.936;6.854;2023-02-19T15:40:30;11.00;99.90
3614;DHT22;1821;50.936;6.854;2023-02-19T15:41:20;11.20;99.90
3614;DHT22;1821;50.936;6.854;2023-02-19T15:42:05;10.90;99.90
3614;DHT22;1821;50.936;6.854;2023-02-19T15:42:47;11.00;99.90
3614;DHT22;1821;50.936;6.854;2023-02-19T15:43:40;10.90;99.90
3614;DHT22;1821;50.936;6.854;2023-02-19T15:46:06;11.00;99.90
3614;DHT22;1821;50.936;6.854;2023-02-19T15:46:50;11.10;99.90
3614;DHT22;1821;50.936;6.854;2023-02-19T15:48:26;10.80;99.90
3614;DHT22;1821;50.936;6.854;2023-02-19T15:49:15;11.00;99.90
3614;DHT22;1821;50.936;6.854;2023-02-19T15:51:07;10.80;99.90
3614;DHT22;1821;50.936;6.854;2023-02-19T15:52:02;11.00;99.90
3614;DHT22;1821;50.936;6.854;2023-02-19T15:53:45;10.80;99.90
3614;DHT22;1821;50.936;6.854;2023-02-19T15:56:22;10.90;99.90
3614;DHT22;1821;50.936;6.854;2023-02-19T15:57:14;11.00;99.90
3614;DHT22;1821;50.936;6.854;2023-02-19T15:59:53;11.00;99.90
3614;DHT22;1821;50.936;6.854;2023-02-19T16:00:49;10.70;99.90
3614;DHT22;1821;50.936;6.854;2023-02-19T16:01:35;10.90;99.90
3614;DHT22;1821;50.936;6.854;2023-02-19T16:02:18;10.90;99.90
3614;DHT22;1821;50.936;6.854;2023-02-19T16:03:00;10.60;99.90
3614;DHT22;1821;50.936;6.854;2023-02-19T16:03:43;10.90;99.90
3614;DHT22;1821;50.936;6.854;2023-02-19T16:04:25;10.90;99.90
3614;DHT22;1821;50.936;6.854;2023-02-19T16:05:21;10.80;99.90
3614;DHT22;1821;50.936;6.854;2023-02-19T16:07:04;10.70;99.90
3614;DHT22;1821;50.936;6.854;2023-02-19T16:07:45;10.80;99.90
3614;DHT22;1821;50.936;6.854;2023-02-19T16:09:26;10.80;99.90
3614;DHT22;1821;50.936;6.854;2023-02-19T16:10:21;10.90;99.90
3614;DHT22;1821;50.936;6.854;2023-02-19T16:13:05;10.60;99.90
3614;DHT22;1821;50.936;6.854;2023-02-19T16:13:50;10.70;99.90
3614;DHT22;1821;50.936;6.854;2023-02-19T16:14:36;10.60;99.90
3614;DHT22;1821;50.936;6.854;2023-02-19T16:15:19;10.70;99.90
3614;DHT22;1821;50.936;6.854;2023-02-19T16:16:02;10.60;99.90
3614;DHT22;1821;50.936;6.854;2023-02-19T16:16:49;10.60;99.90
3614;DHT22;1821;50.936;6.854;2023-02-19T16:17:33;10.50;99.90
3614;DHT22;1821;50.936;6.854;2023-02-19T16:18:14;10.40;99.90
3614;DHT22;1821;50.936;6.854;2023-02-19T16:18:57;10.80;99.90
3614;DHT22;1821;50.936;6.854;2023-02-19T16:20:31;10.80;99.90
3614;DHT22;1821;50.936;6.854;2023-02-19T16:21:16;10.60;99.90
3614;DHT22;1821;50.936;6.854;2023-02-19T16:21:59;10.70;99.90
3614;DHT22;1821;50.936;6.854;2023-02-19T16:22:41;10.80;99.90
3614;DHT22;1821;50.936;6.854;2023-02-19T16:23:23;10.80;99.90
3614;DHT22;1821;50.936;6.854;2023-02-19T16:24:15;10.70;99.90
3614;DHT22;1821;50.936;6.854;2023-02-19T16:25:03;10.70;99.90
3614;DHT22;1821;50.936;6.854;2023-02-19T16:25:47;10.70;99.90
3614;DHT22;1821;50.936;6.854;2023-02-19T16:26:29;10.60;99.90
3614;DHT22;1821;50.936;6.854;2023-02-19T16:27:48;10.50;99.90
3614;DHT22;1821;50.936;6.854;2023-02-19T16:28:38;10.70;99.90
3614;DHT22;1821;50.936;6.854;2023-02-19T16:29:29;10.40;99.90
3614;DHT22;1821;50.936;6.854;2023-02-19T16:31:08;10.50;99.90
3614;DHT22;1821;50.936;6.854;2023-02-19T16:31:54;10.50;99.90
3614;DHT22;1821;50.936;6.854;2023-02-19T16:32:36;10.40;99.90
3614;DHT22;1821;50.936;6.854;2023-02-19T16:34:47;10.50;99.90
3614;DHT22;1821;50.936;6.854;2023-02-19T16:35:38;10.40;99.90
3614;DHT22;1821;50.936;6.854;2023-02-19T16:38:18;10.60;99.90
3614;DHT22;1821;50.936;6.854;2023-02-19T16:40:03;10.40;99.90
3614;DHT22;1821;50.936;6.854;2023-02-19T16:41:03;10.40;99.90
3614;DHT22;1821;50.936;6.854;2023-02-19T16:42:27;10.70;99.90
3614;DHT22;1821;50.936;6.854;2023-02-19T16:43:54;10.20;99.90
3614;DHT22;1821;50.936;6.854;2023-02-19T16:44:35;10.60;99.90
3614;DHT22;1821;50.936;6.854;2023-02-19T16:45:18;10.30;99.90
3614;DHT22;1821;50.936;6.854;2023-02-19T16:46:00;10.40;99.90
3614;DHT22;1821;50.936;6.854;2023-02-19T16:46:42;10.20;99.90
3614;DHT22;1821;50.936;6.854;2023-02-19T16:47:29;10.40;99.90
3614;DHT22;1821;50.936;6.854;2023-02-19T16:48:11;10.50;99.90
3614;DHT22;1821;50.936;6.854;2023-02-19T16:48:53;10.30;99.90
3614;DHT22;1821;50.936;6.854;2023-02-19T16:49:36;10.60;99.90
3614;DHT22;1821;50.936;6.854;2023-02-19T16:50:21;10.60;99.90
3614;DHT22;1821;50.936;6.854;2023-02-19T16:51:05;10.30;99.90
3614;DHT22;1821;50.936;6.854;2023-02-19T16:51:47;10.30;99.90
3614;DHT22;1821;50.936;6.854;2023-02-19T16:52:30;10.30;99.90
3614;DHT22;1821;50.936;6.854;2023-02-19T16:53:20;10.40;99.90
3614;DHT22;1821;50.936;6.854;2023-02-19T16:54:02;10.50;99.90
3614;DHT22;1821;50.936;6.854;2023-02-19T16:54:46;10.60;99.90
3614;DHT22;1821;50.936;6.854;2023-02-19T16:55:29;10.50;99.90
3614;DHT22;1821;50.936;6.854;2023-02-19T16:56:16;10.60;99.90
3614;DHT22;1821;50.936;6.854;2023-02-19T16:56:59;10.60;99.90
3614;DHT22;1821;50.936;6.854;2023-02-19T16:57:40;10.30;99.90
3614;DHT22;1821;50.936;6.854;2023-02-19T16:58:22;10.30;99.90
3614;DHT22;1821;50.936;6.854;2023-02-19T16:59:04;10.50;99.90
3614;DHT22;1821;50.936;6.854;2023-02-19T16:59:47;10.30;99.90
3614;DHT22;1821;50.936;6.854;2023-02-19T17:00:30;10.40;99.90
3614;DHT22;1821;50.936;6.854;2023-02-19T17:01:12;10.50;99.90
3614;DHT22;1821;50.936;6.854;2023-02-19T17:01:55;10.50;99.90
3614;DHT22;1821;50.936;6.854;2023-02-19T17:02:37;10.50;99.90
3614;DHT22;1821;50.936;6.854;2023-02-19T17:03:20;10.50;99.90
3614;DHT22;1821;50.936;6.854;2023-02-19T17:04:08;10.40;99.90
3614;DHT22;1821;50.936;6.854;2023-02-19T17:04:51;10.50;99.90
3614;DHT22;1821;50.936;6.854;2023-02-19T17:05:37;10.30;99.90
3614;DHT22;1821;50.936;6.854;2023-02-19T17:06:19;10.40;99.90
3614;DHT22;1821;50.936;6.854;2023-02-19T17:07:01;10.50;99.90
3614;DHT22;1821;50.936;6.854;2023-02-19T17:07:43;10.30;99.90
3614;DHT22;1821;50.936;6.854;2023-02-19T17:09:12;10.30;99.90
3614;DHT22;1821;50.936;6.854;2023-02-19T17:09:54;10.40;99.90
3614;DHT22;1821;50.936;6.854;2023-02-19T17:10:36;10.50;99.90
3614;DHT22;1821;50.936;6.854;2023-02-19T17:11:18;10.40;99.90
3614;DHT22;1821;50.936;6.854;2023-02-19T17:12:00;10.20;99.90
3614;DHT22;1821;50.936;6.854;2023-02-19T17:12:42;10.30;99.90
3614;DHT22;1821;50.936;6.854;2023-02-19T17:13:23;10.20;99.90
3614;DHT22;1821;50.936;6.854;2023-02-19T17:14:05;10.40;99.90
3614;DHT22;1821;50.936;6.854;2023-02-19T17:14:48;10.60;99.90
3614;DHT22;1821;50.936;6.854;2023-02-19T17:15:30;10.40;99.90
3614;DHT22;1821;50.936;6.854;2023-02-19T17:16:22;10.30;99.90
3614;DHT22;1821;50.936;6.854;2023-02-19T17:17:04;10.30;99.90
3614;DHT22;1821;50.936;6.854;2023-02-19T17:17:46;10.20;99.90
3614;DHT22;1821;50.936;6.854;2023-02-19T17:18:28;10.40;99.90
3614;DHT22;1821;50.936;6.854;2023-02-19T17:19:12;10.30;99.90
3614;DHT22;1821;50.936;6.854;2023-02-19T17:19:54;10.50;99.90
3614;DHT22;1821;50.936;6.854;2023-02-19T17:20:37;10.50;99.90
3614;DHT22;1821;50.936;6.854;2023-02-19T17:21:28;10.20;99.90
3614;DHT22;1821;50.936;6.854;2023-02-19T17:22:11;10.30;99.90
3614;DHT22;1821;50.936;6.854;2023-02-19T17:22:57;10.50;99.90
3614;DHT22;1821;50.936;6.854;2023-02-19T17:23:39;10.30;99.90
3614;DHT22;1821;50.936;6.854;2023-02-19T17:24:21;10.40;99.90
3614;DHT22;1821;50.936;6.854;2023-02-19T17:25:05;10.40;99.90
3614;DHT22;1821;50.936;6.854;2023-02-19T17:25:49;10.30;99.90
3614;DHT22;1821;50.936;6.854;2023-02-19T17:26:31;10.10;99.90
3614;DHT22;1821;50.936;6.854;2023-02-19T17:27:13;10.30;99.90
3614;DHT22;1821;50.936;6.854;2023-02-19T17:27:55;10.30;99.90
3614;DHT22;1821;50.936;6.854;2023-02-19T17:28:37;10.20;99.90
3614;DHT22;1821;50.936;6.854;2023-02-19T17:29:21;10.10;99.90
3614;DHT22;1821;50.936;6.854;2023-02-19T17:30:12;10.40;99.90
3614;DHT22;1821;50.936;6.854;2023-02-19T17:30:57;10.40;99.90
3614;DHT22;1821;50.936;6.854;2023-02-19T17:31:39;10.20;99.90
3614;DHT22;1821;50.936;6.854;2023-02-19T17:32:21;10.10;99.90
3614;DHT22;1821;50.936;6.854;2023-02-19T17:33:03;10.30;99.90
3614;DHT22;1821;50.936;6.854;2023-02-19T17:33:45;10.10;99.90
3614;DHT22;1821;50.936;6.854;2023-02-19T17:34:27;10.10;99.90
3614;DHT22;1821;50.936;6.854;2023-02-19T17:35:51;10.20;99.90
3614;DHT22;1821;50.936;6.854;2023-02-19T17:36:33;10.20;99.90
3614;DHT22;1821;50.936;6.854;2023-02-19T17:37:15;10.10;99.90
3614;DHT22;1821;50.936;6.854;2023-02-19T17:37:57;9.50;99.90
3614;DHT22;1821;50.936;6.854;2023-02-19T17:38:38;10.10;99.90
3614;DHT22;1821;50.936;6.854;2023-02-19T17:39:21;9.80;99.90
3614;DHT22;1821;50.936;6.854;2023-02-19T17:40:08;9.80;99.90
3614;DHT22;1821;50.936;6.854;2023-02-19T17:41:13;10.00;99.90
3614;DHT22;1821;50.936;6.854;2023-02-19T17:41:54;10.00;99.90
3614;DHT22;1821;50.936;6.854;2023-02-19T17:42:36;9.80;99.90
3614;DHT22;1821;50.936;6.854;2023-02-19T17:43:18;9.80;99.90
3614;DHT22;1821;50.936;6.854;2023-02-19T17:44:00;10.00;99.90
3614;DHT22;1821;50.936;6.854;2023-02-19T17:44:42;9.90;99.90
3614;DHT22;1821;50.936;6.854;2023-02-19T17:45:24;10.40;99.90
3614;DHT22;1821;50.936;6.854;2023-02-19T17:46:07;9.90;99.90
3614;DHT22;1821;50.936;6.854;2023-02-19T17:46:50;9.90;99.90
3614;DHT22;1821;50.936;6.854;2023-02-19T17:47:32;9.80;99.90
3614;DHT22;1821;50.936;6.854;2023-02-19T17:48:14;9.90;99.90
3614;DHT22;1821;50.936;6.854;2023-02-19T17:48:56;9.80;99.90
3614;DHT22;1821;50.936;6.854;2023-02-19T17:49:38;9.80;99.90
3614;DHT22;1821;50.936;6.854;2023-02-19T17:50:22;9.90;99.90
3614;DHT22;1821;50.936;6.854;2023-02-19T17:51:05;10.10;99.90
3614;DHT22;1821;50.936;6.854;2023-02-19T17:51:46;9.80;99.90
3614;DHT22;1821;50.936;6.854;2023-02-19T17:52:28;9.20;99.90
3614;DHT22;1821;50.936;6.854;2023-02-19T17:53:10;9.90;99.90
3614;DHT22;1821;50.936;6.854;2023-02-19T17:53:52;10.00;99.90
3614;DHT22;1821;50.936;6.854;2023-02-19T17:54:34;9.80;99.90
3614;DHT22;1821;50.936;6.854;2023-02-19T17:55:17;10.10;99.90
3614;DHT22;1821;50.936;6.854;2023-02-19T17:55:59;10.00;99.90
3614;DHT22;1821;50.936;6.854;2023-02-19T17:56:41;10.00;99.90
3614;DHT22;1821;50.936;6.854;2023-02-19T17:57:26;9.90;99.90
3614;DHT22;1821;50.936;6.854;2023-02-19T17:58:13;9.80;99.90
3614;DHT22;1821;50.936;6.854;2023-02-19T17:58:56;9.60;99.90
3614;DHT22;1821;50.936;6.854;2023-02-19T17:59:38;10.00;99.90
3614;DHT22;1821;50.936;6.854;2023-02-19T18:00:26;9.80;99.90
3614;DHT22;1821;50.936;6.854;2023-02-19T18:01:08;9.70;99.90
3614;DHT22;1821;50.936;6.854;2023-02-19T18:01:52;9.70;99.90
3614;DHT22;1821;50.936;6.854;2023-02-19T18:02:34;9.60;99.90
3614;DHT22;1821;50.936;6.854;2023-02-19T18:03:16;9.80;99.90
3614;DHT22;1821;50.936;6.854;2023-02-19T18:03:58;9.80;99.90
3614;DHT22;1821;50.936;6.854;2023-02-19T18:04:42;9.70;99.90
3614;DHT22;1821;50.936;6.854;2023-02-19T18:05:24;9.80;99.90
3614;DHT22;1821;50.936;6.854;2023-02-19T18:06:06;9.70;99.90
3614;DHT22;1821;50.936;6.854;2023-02-19T18:06:48;9.70;99.90
3614;DHT22;1821;50.936;6.854;2023-02-19T18:07:30;9.80;99.90
3614;DHT22;1821;50.936;6.854;2023-02-19T18:08:12;9.60;99.90
3614;DHT22;1821;50.936;6.854;2023-02-19T18:08:54;9.70;99.90
3614;DHT22;1821;50.936;6.854;2023-02-19T18:09:36;9.70;99.90
3614;DHT22;1821;50.936;6.854;2023-02-19T18:10:21;9.90;99.90
3614;DHT22;1821;50.936;6.854;2023-02-19T18:11:05;9.80;99.90
3614;DHT22;1821;50.936;6.854;2023-02-19T18:11:47;9.90;99.90
3614;DHT22;1821;50.936;6.854;2023-02-19T18:12:30;9.90;99.90
3614;DHT22;1821;50.936;6.854;2023-02-19T18:13:12;9.80;99.90
3614;DHT22;1821;50.936;6.854;2023-02-19T18:13:53;9.70;99.90
3614;DHT22;1821;50.936;6.854;2023-02-19T18:14:36;10.00;99.90
3614;DHT22;1821;50.936;6.854;2023-02-19T18:15:23;9.70;99.90
3614;DHT22;1821;50.936;6.854;2023-02-19T18:16:07;9.80;99.90
3614;DHT22;1821;50.936;6.854;2023-02-19T18:16:50;9.50;99.90
3614;DHT22;1821;50.936;6.854;2023-02-19T18:17:33;9.80;99.90
3614;DHT22;1821;50.936;6.854;2023-02-19T18:18:15;9.50;99.90
3614;DHT22;1821;50.936;6.854;2023-02-19T18:18:57;9.60;99.90
3614;DHT22;1821;50.936;6.854;2023-02-19T18:19:42;9.80;99.90
3614;DHT22;1821;50.936;6.854;2023-02-19T18:20:27;9.70;99.90
3614;DHT22;1821;50.936;6.854;2023-02-19T18:21:11;9.60;99.90
3614;DHT22;1821;50.936;6.854;2023-02-19T18:21:53;9.60;99.90
3614;DHT22;1821;50.936;6.854;2023-02-19T18:22:35;10.20;99.90
3614;DHT22;1821;50.936;6.854;2023-02-19T18:23:22;9.50;99.90
3614;DHT22;1821;50.936;6.854;2023-02-19T18:24:04;9.60;99.90
3614;DHT22;1821;50.936;6.854;2023-02-19T18:24:49;9.80;99.90
3614;DHT22;1821;50.936;6.854;2023-02-19T18:25:31;9.60;99.90
3614;DHT22;1821;50.936;6.854;2023-02-19T18:26:18;9.70;99.90
3614;DHT22;1821;50.936;6.854;2023-02-19T18:27:00;9.70;99.90
3614;DHT22;1821;50.936;6.854;2023-02-19T18:27:42;9.80;99.90
3614;DHT22;1821;50.936;6.854;2023-02-19T18:28:24;9.60;99.90
3614;DHT22;1821;50.936;6.854;2023-02-19T18:29:06;9.60;99.90
3614;DHT22;1821;50.936;6.854;2023-02-19T18:29:52;9.90;99.90
3614;DHT22;1821;50.936;6.854;2023-02-19T18:30:34;9.70;99.90
3614;DHT22;1821;50.936;6.854;2023-02-19T18:31:16;9.60;99.90
3614;DHT22;1821;50.936;6.854;2023-02-19T18:31:58;9.60;99.90
3614;DHT22;1821;50.936;6.854;2023-02-19T18:32:40;9.70;99.90
3614;DHT22;1821;50.936;6.854;2023-02-19T18:33:21;9.80;99.90
3614;DHT22;1821;50.936;6.854;2023-02-19T18:34:04;9.80;99.90
3614;DHT22;1821;50.936;6.854;2023-02-19T18:34:54;9.50;99.90
3614;DHT22;1821;50.936;6.854;2023-02-19T18:35:36;9.60;99.90
3614;DHT22;1821;50.936;6.854;2023-02-19T18:36:19;9.70;99.90
3614;DHT22;1821;50.936;6.854;2023-02-19T18:37:01;10.20;99.90